Time;durP1;ratioP1;P1;durP2;ratioP2;P2;SDS_P1;SDS_P2;PMS_P1;PMS_P2;Temp;Humidity;BMP_temperature;BMP_pressure;BME280_temperature;BME280_humidity;BME280_pressure;Samples;Min_cycle;Max_cycle;Signal;HPM_P1;HPM_P2
2021/06/07 00:01:23;;;;;;;26.87;19.10;;;;;;;15.57;100.00;155361.44;5073686;28;20418;-88
2021/06/07 00:03:59;;;;;;;28.40;20.10;;;;;;;15.53;100.00;155351.06;5072025;28;20539;-88
2021/06/07 00:06:35;;;;;;;26.50;19.60;;;;;;;15.55;100.00;155356.25;5072529;28;20441;-88
2021/06/07 00:09:13;;;;;;;23.80;18.47;;;;;;;15.57;100.00;155361.44;5072644;28;20445;-88
2021/06/07 00:11:51;;;;;;;26.23;19.63;;;;;;;15.56;100.00;155358.84;5072274;28;20426;-88
2021/06/07 00:14:29;;;;;;;25.87;21.47;;;;;;;15.50;100.00;155343.25;5072417;28;20453;-88
2021/06/07 00:17:04;;;;;;;28.90;21.90;;;;;;;15.53;100.00;155351.06;5072135;28;20473;-88
2021/06/07 00:19:43;;;;;;;24.07;18.13;;;;;;;15.56;100.00;155357.56;5072416;28;20539;-88
2021/06/07 00:22:19;;;;;;;25.10;19.80;;;;;;;15.60;100.00;155367.91;5072034;28;20477;-88
2021/06/07 00:24:54;;;;;;;25.23;20.27;;;;;;;15.55;100.00;155356.25;5071978;28;20468;-88
2021/06/07 00:27:29;;;;;;;26.37;19.77;;;;;;;15.54;100.00;155353.63;5073636;28;20410;-88
2021/06/07 00:30:06;;;;;;;23.57;19.43;;;;;;;15.54;100.00;155352.38;5072247;28;20539;-88
2021/06/07 00:32:41;;;;;;;22.70;19.03;;;;;;;15.55;100.00;155354.94;5073511;28;20423;-88
2021/06/07 00:35:19;;;;;;;20.93;17.83;;;;;;;15.56;100.00;155357.56;5072494;28;20532;-88
2021/06/07 00:37:55;;;;;;;26.13;19.97;;;;;;;15.52;100.00;155348.44;5072006;28;20536;-88
2021/06/07 00:40:30;;;;;;;28.83;20.63;;;;;;;15.50;100.00;155343.25;5073569;28;20437;-88
2021/06/07 00:43:05;;;;;;;26.73;20.80;;;;;;;15.50;100.00;155341.94;5072177;28;20453;-88
2021/06/07 00:45:41;;;;;;;28.40;21.27;;;;;;;15.51;100.00;155344.56;5072317;28;20442;-88
2021/06/07 00:48:17;;;;;;;28.30;20.50;;;;;;;15.51;100.00;155344.56;5073827;28;20754;-87
2021/06/07 00:50:55;;;;;;;28.83;21.60;;;;;;;15.49;100.00;155339.38;5067063;28;20454;-88
2021/06/07 00:53:30;;;;;;;27.93;21.40;;;;;;;15.45;100.00;155330.19;5064187;28;20445;-87
2021/06/07 00:56:07;;;;;;;26.00;19.30;;;;;;;15.46;100.00;155332.81;5062470;28;20463;-87
2021/06/07 00:58:46;;;;;;;23.90;19.17;;;;;;;15.46;100.00;155331.56;5073325;28;20501;-87
2021/06/07 01:01:23;;;;;;;25.27;20.70;;;;;;;15.47;100.00;155335.44;5075556;28;20892;-87
2021/06/07 01:04:00;;;;;;;24.13;20.33;;;;;;;15.46;100.00;155332.81;5076160;28;20442;-87
2021/06/07 01:06:37;;;;;;;24.93;19.17;;;;;;;15.46;100.00;155332.81;5060011;28;20469;-87
2021/06/07 01:09:11;;;;;;;24.00;18.63;;;;;;;15.48;100.00;155336.75;5075699;28;20438;-87
2021/06/07 01:11:47;;;;;;;26.03;20.90;;;;;;;15.43;100.00;155325.00;5060086;28;20445;-87
2021/06/07 01:14:22;;;;;;;29.00;20.17;;;;;;;15.40;100.00;155317.22;5075691;28;20457;-87
2021/06/07 01:16:57;;;;;;;23.07;17.53;;;;;;;15.40;100.00;155315.91;5075159;28;20475;-88
2021/06/07 01:19:33;;;;;;;25.80;20.13;;;;;;;15.37;100.00;155309.41;5075308;28;20453;-88
2021/06/07 01:22:09;;;;;;;24.77;19.40;;;;;;;15.36;100.00;155306.78;5075401;28;20480;-88
2021/06/07 01:24:44;;;;;;;28.20;19.83;;;;;;;15.35;100.00;155304.22;5075034;28;20912;-87
2021/06/07 01:27:19;;;;;;;26.27;19.90;;;;;;;15.33;100.00;155297.72;5059403;28;20444;-87
2021/06/07 01:29:55;;;;;;;26.90;21.40;;;;;;;15.35;100.00;155302.91;5075180;28;20548;-88
2021/06/07 01:32:30;;;;;;;31.77;21.93;;;;;;;15.33;100.00;155297.72;5075207;28;20807;-88
2021/06/07 01:35:07;;;;;;;27.83;20.60;;;;;;;15.33;100.00;155297.72;5074893;28;20494;-87
2021/06/07 01:37:44;;;;;;;29.90;20.20;;;;;;;15.31;100.00;155293.78;5073966;28;20462;-88
2021/06/07 01:40:22;;;;;;;31.37;18.93;;;;;;;15.30;100.00;155289.91;5075039;28;20481;-87
2021/06/07 01:42:57;;;;;;;25.73;19.57;;;;;;;15.30;100.00;155291.22;5075040;28;20936;-88
2021/06/07 01:45:34;;;;;;;25.93;19.53;;;;;;;15.32;100.00;155296.41;5059426;28;20452;-88
2021/06/07 01:48:10;;;;;;;26.40;19.13;;;;;;;15.29;100.00;155288.63;5074639;28;20935;-88
2021/06/07 01:50:47;;;;;;;25.33;19.77;;;;;;;15.30;100.00;155289.91;5074992;28;20489;-88
2021/06/07 01:53:25;;;;;;;26.83;18.70;;;;;;;15.29;100.00;155288.63;5059109;28;20442;-88
2021/06/07 01:56:02;;;;;;;28.70;20.37;;;;;;;15.27;100.00;155284.69;5074213;28;20473;-88
2021/06/07 01:58:39;;;;;;;31.30;22.23;;;;;;;15.31;100.00;155293.78;5056816;28;20536;-88
2021/06/07 02:01:16;;;;;;;26.80;20.57;;;;;;;15.29;100.00;155288.63;5075799;28;20418;-88
2021/06/07 02:03:51;;;;;;;24.53;19.50;;;;;;;15.29;100.00;155287.31;5074252;28;20438;-88
2021/06/07 02:06:27;;;;;;;26.13;19.07;;;;;;;15.26;100.00;155280.81;5075767;28;20874;-88
2021/06/07 02:09:04;;;;;;;27.77;20.97;;;;;;;15.24;100.00;155276.94;5074100;28;20457;-88
2021/06/07 02:11:39;;;;;;;32.90;23.00;;;;;;;15.25;100.00;155279.50;5059133;28;20430;-88
2021/06/07 02:14:14;;;;;;;30.53;19.77;;;;;;;15.25;100.00;155279.50;5075365;28;20780;-88
2021/06/07 02:16:49;;;;;;;27.63;19.60;;;;;;;15.24;100.00;155275.63;5072764;28;20473;-88
2021/06/07 02:19:25;;;;;;;29.03;21.00;;;;;;;15.20;100.00;155265.19;5070199;28;20466;-87
2021/06/07 02:22:00;;;;;;;27.37;21.40;;;;;;;15.21;100.00;155267.81;5055452;28;20419;-88
2021/06/07 02:24:36;;;;;;;27.50;21.43;;;;;;;15.23;100.00;155274.31;5053828;28;20848;-87
2021/06/07 02:27:11;;;;;;;30.13;22.43;;;;;;;15.20;100.00;155265.19;5054514;28;20471;-88
2021/06/07 02:29:46;;;;;;;26.20;20.67;;;;;;;15.15;100.00;155252.22;5054211;28;20525;-87
2021/06/07 02:32:22;;;;;;;31.73;21.83;;;;;;;15.12;100.00;155244.41;5055396;28;20889;-88
2021/06/07 02:34:57;;;;;;;33.00;23.17;;;;;;;15.11;100.00;155243.16;5053859;28;20445;-87
2021/06/07 02:37:32;;;;;;;29.40;20.40;;;;;;;15.12;100.00;155244.41;5038515;28;20935;-88
2021/06/07 02:40:12;;;;;;;31.70;21.20;;;;;;;15.13;100.00;155247.03;5054046;28;20533;-88
2021/06/07 02:42:47;;;;;;;35.00;21.60;;;;;;;15.11;100.00;155243.16;5067793;28;20441;-88
2021/06/07 02:45:25;;;;;;;29.50;20.40;;;;;;;15.14;100.00;155249.66;5073861;28;20820;-88
2021/06/07 02:48:01;;;;;;;27.93;19.43;;;;;;;15.14;100.00;155250.91;5073611;28;20449;-88
2021/06/07 02:50:39;;;;;;;27.57;20.83;;;;;;;15.15;100.00;155252.22;5073860;28;20480;-88
2021/06/07 02:53:15;;;;;;;28.23;20.30;;;;;;;15.15;100.00;155253.53;5074246;28;20449;-88
2021/06/07 02:55:53;;;;;;;30.80;22.40;;;;;;;15.12;100.00;155245.72;5058226;28;20480;-88
2021/06/07 02:58:28;;;;;;;31.10;21.27;;;;;;;15.08;100.00;155235.34;5073495;28;20471;-88
2021/06/07 03:01:06;;;;;;;29.80;21.40;;;;;;;15.06;100.00;155228.84;5073167;28;20469;-88
2021/06/07 03:03:41;;;;;;;30.47;20.60;;;;;;;15.10;100.00;155240.53;5074587;28;20422;-88
2021/06/07 03:06:16;;;;;;;31.33;23.13;;;;;;;15.08;100.00;155234.03;5073138;28;20443;-88
2021/06/07 03:08:51;;;;;;;32.40;24.03;;;;;;;15.06;100.00;155228.84;5073236;28;20524;-88
2021/06/07 03:11:27;;;;;;;32.80;21.33;;;;;;;15.06;100.00;155228.84;5057692;28;20495;-88
2021/06/07 03:14:02;;;;;;;34.20;21.73;;;;;;;15.09;100.00;155237.91;5074191;28;20426;-88
2021/06/07 03:16:37;;;;;;;28.73;21.73;;;;;;;15.14;100.00;155249.66;5072976;28;20500;-88
2021/06/07 03:19:12;;;;;;;33.50;23.13;;;;;;;15.08;100.00;155234.03;5072839;28;20450;-88
2021/06/07 03:21:48;;;;;;;33.60;23.27;;;;;;;15.09;100.00;155236.66;5073703;28;20441;-88
2021/06/07 03:24:22;;;;;;;31.03;22.17;;;;;;;15.08;100.00;155234.03;5072371;28;20866;-88
2021/06/07 03:27:00;;;;;;;30.80;21.93;;;;;;;15.07;100.00;155231.41;5073750;28;20475;-88
2021/06/07 03:29:35;;;;;;;37.03;23.17;;;;;;;15.05;100.00;155227.53;5073199;28;20876;-88
2021/06/07 03:32:10;;;;;;;30.33;21.53;;;;;;;15.10;100.00;155239.22;5072892;28;20472;-88
2021/06/07 03:34:46;;;;;;;38.33;22.90;;;;;;;15.07;100.00;155231.41;5072966;28;20540;-88
2021/06/07 03:37:21;;;;;;;30.90;20.73;;;;;;;15.03;100.00;155221.03;5072945;28;20555;-89
2021/06/07 03:39:56;;;;;;;28.53;21.80;;;;;;;15.04;100.00;155223.63;5085345;28;20432;-88
2021/06/07 03:42:33;;;;;;;29.50;21.53;;;;;;;15.07;100.00;155231.41;5098633;28;20476;-88
2021/06/07 03:45:10;;;;;;;33.90;22.97;;;;;;;15.01;100.00;155217.13;5086657;28;20416;-89
2021/06/07 03:47:46;;;;;;;36.50;24.23;;;;;;;15.04;100.00;155223.63;5060634;28;20422;-89
2021/06/07 03:50:23;;;;;;;34.70;23.80;;;;;;;15.07;100.00;155231.41;5052561;28;20461;-89
2021/06/07 03:52:58;;;;;;;32.37;22.13;;;;;;;15.02;100.00;155218.44;5069404;28;20794;-89
2021/06/07 03:55:34;;;;;;;29.07;21.60;;;;;;;15.04;100.00;155223.63;5054360;28;20437;-88
2021/06/07 03:58:10;;;;;;;33.70;22.10;;;;;;;15.05;100.00;155227.53;5052008;28;20867;-89
2021/06/07 04:00:46;;;;;;;32.47;21.40;;;;;;;15.03;100.00;155221.03;5052730;28;20485;-89
2021/06/07 04:03:21;;;;;;;32.53;23.10;;;;;;;15.05;100.00;155226.22;5052254;28;20453;-89
2021/06/07 04:05:56;;;;;;;31.20;20.90;;;;;;;15.03;100.00;155221.03;5052515;28;20535;-89
2021/06/07 04:08:31;;;;;;;32.87;22.17;;;;;;;15.04;100.00;155223.63;5053448;28;20529;-89
2021/06/07 04:11:06;;;;;;;34.80;21.40;;;;;;;15.04;100.00;155224.94;5052384;28;20445;-89
2021/06/07 04:13:43;;;;;;;28.97;20.33;;;;;;;15.05;100.00;155226.22;5063882;28;20436;-89
2021/06/07 04:16:18;;;;;;;34.13;22.50;;;;;;;15.03;100.00;155221.03;5072128;28;20537;-89
2021/06/07 04:18:53;;;;;;;31.00;21.67;;;;;;;15.00;100.00;155213.25;5072066;28;20551;-89
2021/06/07 04:21:28;;;;;;;34.07;22.33;;;;;;;14.99;100.00;155211.94;5073279;28;20424;-88
2021/06/07 04:24:04;;;;;;;34.80;22.27;;;;;;;15.03;100.00;155222.34;5072345;28;20477;-90
2021/06/07 04:26:39;;;;;;;29.53;20.80;;;;;;;15.00;100.00;155214.56;5073352;28;20460;-90
2021/06/07 04:29:15;;;;;;;36.17;21.73;;;;;;;15.00;100.00;155214.56;5072346;28;20903;-91
2021/06/07 04:31:53;;;;;;;30.47;20.87;;;;;;;15.03;100.00;155222.34;5072135;28;20451;-91
2021/06/07 04:34:43;;;;;;;38.07;22.27;;;;;;;14.97;100.00;155206.75;5077155;28;20462;-91
2021/06/07 04:37:18;;;;;;;29.90;20.50;;;;;;;14.94;100.00;155197.66;5076630;28;20467;-90
2021/06/07 04:39:53;;;;;;;33.83;22.13;;;;;;;14.97;100.00;155205.44;5077857;28;20440;-90
2021/06/07 04:42:31;;;;;;;33.93;23.50;;;;;;;14.97;100.00;155205.44;5076581;28;20436;-91
2021/06/07 04:45:15;;;;;;;35.20;22.53;;;;;;;15.01;100.00;155217.13;5060996;28;20456;-90
2021/06/07 04:48:08;;;;;;;36.83;21.10;;;;;;;14.96;100.00;155202.81;5076142;28;20460;-91
2021/06/07 04:50:45;;;;;;;32.77;23.20;;;;;;;14.95;100.00;155201.56;5076380;28;20463;-89
2021/06/07 04:53:22;;;;;;;34.30;23.23;;;;;;;14.94;100.00;155197.66;5076929;28;20899;-90
2021/06/07 04:55:58;;;;;;;39.30;24.03;;;;;;;14.93;100.00;155195.06;5077156;28;20412;-90
2021/06/07 04:58:33;;;;;;;36.77;23.50;;;;;;;14.98;100.00;155209.38;5075878;28;20437;-90
2021/06/07 05:01:12;;;;;;;42.60;24.70;;;;;;;14.97;100.00;155205.44;5077128;28;20433;-90
2021/06/07 05:03:47;;;;;;;35.00;22.60;;;;;;;14.97;100.00;155206.75;5059860;28;20440;-90
2021/06/07 05:06:22;;;;;;;34.27;22.60;;;;;;;15.00;100.00;155213.25;5075615;28;20526;-89
2021/06/07 05:09:02;;;;;;;44.17;21.90;;;;;;;15.02;100.00;155218.44;5075819;28;20776;-89
2021/06/07 05:11:39;;;;;;;38.03;22.30;;;;;;;14.98;100.00;155208.06;5076483;28;20436;-89
2021/06/07 05:14:14;;;;;;;37.37;22.87;;;;;;;14.97;100.00;155206.75;5074850;28;20447;-89
2021/06/07 05:17:19;;;;;;;36.57;22.47;;;;;;;14.95;100.00;155200.25;5058736;28;20475;-77
2021/06/07 05:19:55;;;;;;;42.10;24.80;;;;;;;14.93;100.00;155195.06;5053083;28;20459;-77
2021/06/07 05:22:30;;;;;;;41.20;22.73;;;;;;;14.97;100.00;155205.44;5053028;28;20500;-77
2021/06/07 05:25:06;;;;;;;33.13;22.03;;;;;;;15.01;100.00;155215.88;5038093;28;20484;-77
2021/06/07 05:27:42;;;;;;;33.83;21.73;;;;;;;14.99;100.00;155211.94;5048341;28;20442;-77
2021/06/07 05:30:18;;;;;;;31.53;21.37;;;;;;;15.02;100.00;155218.44;5053725;28;20455;-77
2021/06/07 05:33:17;;;;;;;44.73;22.10;;;;;;;15.01;100.00;155215.88;5054088;28;20477;-77
2021/06/07 05:35:54;;;;;;;35.03;19.80;;;;;;;15.02;100.00;155218.44;5055237;28;20441;-77
2021/06/07 05:38:29;;;;;;;55.73;22.93;;;;;;;14.95;100.00;155200.25;5054099;28;20503;-77
2021/06/07 05:41:04;;;;;;;37.97;21.20;;;;;;;14.98;100.00;155209.38;5055483;28;20471;-77
2021/06/07 05:43:42;;;;;;;49.33;21.73;;;;;;;15.02;100.00;155218.44;5052627;28;20517;-77
2021/06/07 05:46:17;;;;;;;34.17;21.07;;;;;;;15.00;100.00;155213.25;5052994;28;20439;-76
2021/06/07 05:48:54;;;;;;;41.20;22.10;;;;;;;15.00;100.00;155213.25;5053184;28;20448;-77
2021/06/07 05:51:29;;;;;;;40.83;21.70;;;;;;;14.98;100.00;155209.38;5053908;28;20966;-77
2021/06/07 05:54:05;;;;;;;34.73;20.17;;;;;;;15.00;100.00;155214.56;5054994;28;20430;-77
2021/06/07 05:56:40;;;;;;;35.23;19.90;;;;;;;15.01;100.00;155217.13;5052711;28;20831;-74
2021/06/07 05:59:15;;;;;;;48.63;20.97;;;;;;;14.99;100.00;155210.63;5069800;28;20560;-77
2021/06/07 06:01:51;;;;;;;32.60;20.20;;;;;;;15.00;100.00;155213.25;5070657;28;20459;-77
2021/06/07 06:04:27;;;;;;;36.40;20.47;;;;;;;15.02;100.00;155219.75;5057081;28;20444;-77
2021/06/07 06:07:04;;;;;;;34.57;19.27;;;;;;;15.02;100.00;155218.44;5072727;28;21014;-77
2021/06/07 06:09:39;;;;;;;37.20;20.13;;;;;;;15.05;100.00;155226.22;5071947;28;20500;-77
2021/06/07 06:12:14;;;;;;;31.00;20.03;;;;;;;15.06;100.00;155230.09;5074733;28;20423;-77
2021/06/07 06:14:49;;;;;;;43.13;20.40;;;;;;;15.05;100.00;155227.53;5058360;28;20451;-77
2021/06/07 06:17:24;;;;;;;31.47;20.17;;;;;;;15.07;100.00;155232.72;5072994;28;20457;-76
2021/06/07 06:20:01;;;;;;;47.17;20.93;;;;;;;15.14;100.00;155250.91;5053446;28;20444;-76
2021/06/07 06:22:36;;;;;;;45.10;19.17;;;;;;;15.02;100.00;155219.75;5054954;28;20767;-76
2021/06/07 06:25:12;;;;;;;31.77;19.37;;;;;;;15.08;100.00;155234.03;5056877;28;20469;-77
2021/06/07 06:27:47;;;;;;;38.27;20.73;;;;;;;15.07;100.00;155231.41;5067437;28;20509;-76
2021/06/07 06:30:25;;;;;;;39.00;20.70;;;;;;;15.11;100.00;155243.16;5074994;28;20452;-77
2021/06/07 06:33:01;;;;;;;30.07;19.33;;;;;;;15.13;100.00;155247.03;5077012;28;20518;-77
2021/06/07 06:35:37;;;;;;;30.63;19.43;;;;;;;15.14;100.00;155250.91;5052039;28;20490;-76
2021/06/07 06:38:12;;;;;;;31.73;20.17;;;;;;;15.17;100.00;155258.72;5063347;28;20461;-77
2021/06/07 06:40:48;;;;;;;32.50;20.37;;;;;;;15.19;100.00;155262.63;5053215;28;20457;-77
2021/06/07 06:43:23;;;;;;;31.63;19.90;;;;;;;15.22;100.00;155271.69;5052924;28;20445;-77
2021/06/07 06:45:58;;;;;;;33.23;19.17;;;;;;;15.18;100.00;155260.00;5054701;28;20861;-76
2021/06/07 06:48:34;;;;;;;27.97;19.13;;;;;;;15.20;100.00;155265.19;5053843;28;20420;-77
2021/06/07 06:51:11;;;;;;;27.40;16.50;;;;;;;15.21;100.00;155269.13;5052689;28;20539;-77
2021/06/07 06:53:46;;;;;;;41.37;18.77;;;;;;;15.20;100.00;155265.19;5069569;28;20529;-77
2021/06/07 06:56:22;;;;;;;27.37;18.10;;;;;;;15.22;100.00;155270.44;5058452;28;20472;-76
2021/06/07 06:58:59;;;;;;;25.67;17.90;;;;;;;15.27;100.00;155284.69;5039323;28;20552;-77
2021/06/07 07:01:34;;;;;;;23.60;16.07;;;;;;;15.29;100.00;155288.63;5053414;28;20439;-77
2021/06/07 07:04:09;;;;;;;22.97;16.23;;;;;;;15.30;100.00;155291.22;5072595;28;20827;-77
2021/06/07 07:06:46;;;;;;;25.03;16.70;;;;;;;15.26;100.00;155280.81;5072357;28;20449;-76
2021/06/07 07:09:21;;;;;;;27.67;18.53;;;;;;;15.27;100.00;155283.44;5057305;28;20449;-77
2021/06/07 07:11:56;;;;;;;21.67;15.53;;;;;;;15.31;100.00;155292.50;5069326;28;20445;-77
2021/06/07 07:14:31;;;;;;;22.60;16.13;;;;;;;15.33;100.00;155298.97;5065988;28;20552;-76
2021/06/07 07:17:07;;;;;;;26.50;15.43;;;;;;;15.36;100.00;155305.47;5063421;28;20552;-77
2021/06/07 07:19:44;;;;;;;19.00;12.20;;;;;;;15.37;100.00;155308.09;5067655;28;20855;-77
2021/06/07 07:22:21;;;;;;;19.57;13.70;;;;;;;15.33;100.00;155298.97;5070917;28;20430;-77
2021/06/07 07:24:56;;;;;;;18.87;13.00;;;;;;;15.33;100.00;155298.97;5052189;28;20482;-77
2021/06/07 07:27:32;;;;;;;19.47;12.70;;;;;;;15.33;100.00;155297.72;5096274;28;20505;-77
2021/06/07 07:30:09;;;;;;;21.90;11.10;;;;;;;15.39;100.00;155314.59;5071925;28;20449;-77
2021/06/07 07:32:46;;;;;;;14.50;11.03;;;;;;;15.40;100.00;155317.22;5070787;28;20445;-77
2021/06/07 07:35:23;;;;;;;16.50;11.30;;;;;;;15.40;100.00;155317.22;5072177;28;20464;-77
2021/06/07 07:37:59;;;;;;;15.83;12.00;;;;;;;15.44;100.00;155327.59;5054506;28;20501;-77
2021/06/07 07:40:35;;;;;;;13.63;10.30;;;;;;;15.45;100.00;155330.19;5062777;28;20451;-77
2021/06/07 07:43:09;;;;;;;10.80;8.60;;;;;;;15.51;100.00;155345.88;5076450;28;20786;-77
2021/06/07 07:45:56;;;;;;;14.07;11.17;;;;;;;15.54;100.00;155352.38;5085061;28;20442;-76
2021/06/07 07:48:32;;;;;;;15.80;12.10;;;;;;;15.52;100.00;155347.13;5049851;28;20501;-76
2021/06/07 07:51:07;;;;;;;15.30;10.80;;;;;;;15.54;100.00;155352.38;5058076;28;20468;-77
2021/06/07 07:53:44;;;;;;;18.07;11.87;;;;;;;15.52;100.00;155348.44;5054581;28;20495;-77
2021/06/07 07:56:19;;;;;;;14.40;10.83;;;;;;;15.57;100.00;155361.44;5066612;28;20458;-77
2021/06/07 07:58:54;;;;;;;15.93;11.53;;;;;;;15.59;100.00;155365.34;5066318;28;20441;-77
2021/06/07 08:01:29;;;;;;;15.43;9.20;;;;;;;15.66;100.00;155384.84;5053534;28;20441;-77
2021/06/07 08:04:04;;;;;;;14.87;11.53;;;;;;;15.65;100.00;155382.22;5084679;28;20494;-75
2021/06/07 08:06:40;;;;;;;15.17;11.30;;;;;;;15.66;100.00;155384.84;5052567;28;20841;-76
2021/06/07 08:09:17;;;;;;;14.97;11.70;;;;;;;15.70;100.00;155395.22;5060120;28;20816;-76
2021/06/07 08:11:52;;;;;;;17.27;13.50;;;;;;;15.73;100.00;155403.03;5071091;28;20913;-75
2021/06/07 08:14:28;;;;;;;15.70;11.80;;;;;;;15.76;100.00;155410.84;5050712;28;20960;-75
2021/06/07 08:17:03;;;;;;;18.23;13.27;;;;;;;15.67;100.00;155387.41;5062698;28;20465;-75
2021/06/07 08:19:38;;;;;;;15.20;11.70;;;;;;;15.85;100.00;155432.94;5070702;28;20804;-75
2021/06/07 08:22:13;;;;;;;21.67;13.37;;;;;;;15.74;100.00;155404.34;5069524;28;20940;-75
2021/06/07 08:24:50;;;;;;;17.40;12.97;;;;;;;15.78;100.00;155416.03;5070612;28;20445;-76
2021/06/07 08:27:25;;;;;;;17.43;13.57;;;;;;;15.77;100.00;155413.47;5070801;28;20442;-75
2021/06/07 08:30:00;;;;;;;16.00;12.27;;;;;;;15.78;100.00;155416.03;5058666;28;20809;-75
2021/06/07 08:32:36;;;;;;;16.33;11.60;;;;;;;15.85;100.00;155432.94;5059173;28;20441;-76
2021/06/07 08:35:11;;;;;;;13.80;11.37;;;;;;;15.84;100.00;155431.63;5075700;28;20451;-75
2021/06/07 08:37:47;;;;;;;15.57;10.63;;;;;;;15.79;100.00;155417.34;5053466;28;20468;-75
2021/06/07 08:40:23;;;;;;;15.00;10.90;;;;;;;15.83;100.00;155429.03;5056808;28;20446;-75
2021/06/07 08:42:59;;;;;;;16.60;12.03;;;;;;;15.95;100.00;155457.63;5050834;28;20898;-75
2021/06/07 08:45:35;;;;;;;14.43;11.10;;;;;;;15.95;100.00;155458.94;5068733;28;20457;-75
2021/06/07 08:48:10;;;;;;;13.10;10.50;;;;;;;16.02;100.00;155475.88;5059913;28;20446;-76
2021/06/07 08:50:45;;;;;;;14.80;11.17;;;;;;;15.96;100.00;155460.25;5067086;28;20454;-76
2021/06/07 08:53:20;;;;;;;13.60;10.23;;;;;;;16.03;100.00;155478.44;5057901;28;20446;-76
2021/06/07 08:55:57;;;;;;;14.73;10.67;;;;;;;15.89;100.00;155442.00;5070170;28;20446;-76
2021/06/07 08:58:32;;;;;;;13.90;10.40;;;;;;;15.98;100.00;155465.44;5053433;28;20525;-75
2021/06/07 09:01:07;;;;;;;16.90;12.20;;;;;;;16.00;100.00;155470.63;5050734;28;20956;-75
2021/06/07 09:03:43;;;;;;;16.93;12.37;;;;;;;16.10;100.00;155496.63;5058164;28;20446;-76
2021/06/07 09:06:25;;;;;;;15.17;11.77;;;;;;;16.12;100.00;155501.88;5061718;28;20442;-76
2021/06/07 09:09:04;;;;;;;17.60;12.07;;;;;;;16.13;100.00;155505.75;5064072;28;21233;-76
2021/06/07 09:11:47;;;;;;;15.17;12.73;;;;;;;16.19;100.00;155520.03;5063071;28;20462;-75
2021/06/07 09:14:24;;;;;;;16.30;12.47;;;;;;;16.19;100.00;155520.03;5057589;28;20902;-75
2021/06/07 09:16:59;;;;;;;19.43;13.60;;;;;;;16.32;100.00;155555.16;5049778;28;20557;-76
2021/06/07 09:19:34;;;;;;;17.73;12.97;;;;;;;16.35;100.00;155561.66;5073166;28;20477;-75
2021/06/07 09:22:25;;;;;;;18.00;14.00;;;;;;;16.30;100.00;155549.97;5075203;28;20544;-76
2021/06/07 09:25:06;;;;;;;17.13;13.70;;;;;;;16.30;100.00;155548.66;5072595;28;20930;-76
2021/06/07 09:28:19;;;;;;;20.23;15.53;;;;;;;16.42;100.00;155579.88;5058929;28;20442;-75
2021/06/07 09:30:57;;;;;;;17.80;14.20;;;;;;;16.36;100.00;155565.56;5067906;28;20446;-76
2021/06/07 09:33:34;;;;;;;18.63;14.77;;;;;;;16.30;100.00;155548.66;5064426;28;20525;-76
2021/06/07 09:36:23;;;;;;;18.40;14.53;;;;;;;16.31;100.00;155552.56;5056527;28;20966;-76
2021/06/07 09:39:03;;;;;;;20.23;15.23;;;;;;;16.35;100.00;155561.66;5052428;28;20454;-75
2021/06/07 09:41:54;;;;;;;20.17;15.40;;;;;;;16.45;100.00;155587.66;5064664;28;20442;-75
2021/06/07 09:44:42;;;;;;;20.03;15.53;;;;;;;16.51;100.00;155603.28;5067677;28;20476;-78
2021/06/07 09:47:21;;;;;;;21.17;16.00;;;;;;;16.40;100.00;155575.97;5073051;28;20450;-76
2021/06/07 09:49:58;;;;;;;18.60;15.17;;;;;;;16.48;100.00;155595.47;5091846;28;20442;-76
2021/06/07 09:52:43;;;;;;;20.97;14.87;;;;;;;16.45;100.00;155587.66;5053357;28;20423;-77
2021/06/07 09:55:21;;;;;;;20.93;15.50;;;;;;;16.43;100.00;155583.78;5054931;28;20824;-78
2021/06/07 09:57:57;;;;;;;22.30;17.73;;;;;;;16.51;100.00;155601.97;5071640;28;20462;-78
2021/06/07 10:00:40;;;;;;;21.17;16.20;;;;;;;16.54;100.00;155611.16;5058295;28;20459;-78
2021/06/07 10:03:21;;;;;;;24.50;16.10;;;;;;;16.49;100.00;155598.09;5078823;28;20463;-78
2021/06/07 10:05:59;;;;;;;24.00;16.80;;;;;;;16.39;100.00;155572.06;5061107;28;20443;-78
2021/06/07 10:08:40;;;;;;;22.43;16.73;;;;;;;16.58;100.00;155620.22;5104124;28;20435;-78
2021/06/07 10:11:17;;;;;;;22.97;16.60;;;;;;;16.58;100.00;155620.22;5073408;28;20921;-78
2021/06/07 10:14:06;;;;;;;21.97;16.27;;;;;;;16.68;100.00;155647.53;5048314;28;20901;-78
2021/06/07 10:16:48;;;;;;;20.37;16.37;;;;;;;16.58;100.00;155621.53;5053724;28;20447;-78
2021/06/07 10:19:32;;;;;;;25.03;18.10;;;;;;;16.69;100.00;155650.16;5104300;28;20553;-78
2021/06/07 10:22:07;;;;;;;20.93;16.47;;;;;;;16.61;100.00;155629.34;5063048;28;20432;-77
2021/06/07 10:24:42;;;;;;;22.83;16.33;;;;;;;16.74;100.00;155663.16;5052737;28;20447;-77
2021/06/07 10:27:17;;;;;;;21.80;17.83;;;;;;;16.82;100.00;155684.00;5053154;28;20437;-77
2021/06/07 10:29:53;;;;;;;20.20;17.20;;;;;;;16.99;100.00;155728.25;5071185;28;20445;-78
2021/06/07 10:32:29;;;;;;;21.27;16.23;;;;;;;17.02;100.00;155736.00;5058450;28;20454;-77
2021/06/07 10:35:08;;;;;;;18.43;15.87;;;;;;;16.83;100.00;155686.59;5052863;28;20823;-77
2021/06/07 10:37:58;;;;;;;19.93;16.47;;;;;;;16.82;100.00;155684.00;5055823;28;20473;-77
2021/06/07 10:40:33;;;;;;;21.80;17.10;;;;;;;16.70;100.00;155652.78;5069432;28;20451;-77
2021/06/07 10:43:11;;;;;;;20.47;16.63;;;;;;;16.71;100.00;155655.34;5068285;28;20433;-77
2021/06/07 10:45:46;;;;;;;20.43;15.80;;;;;;;16.72;100.00;155657.97;5079814;28;20431;-77
2021/06/07 10:48:33;;;;;;;21.63;16.93;;;;;;;16.77;100.00;155670.97;5071711;28;20464;-77
2021/06/07 10:51:09;;;;;;;20.67;17.67;;;;;;;16.80;100.00;155678.78;5052173;28;20447;-77
2021/06/07 10:53:45;;;;;;;19.63;15.57;;;;;;;16.86;100.00;155694.41;5052061;28;20458;-77
2021/06/07 10:56:26;;;;;;;22.50;17.13;;;;;;;16.71;100.00;155654.03;5065526;28;20449;-77
2021/06/07 10:59:01;;;;;;;19.73;17.23;;;;;;;16.83;100.00;155686.59;5071828;28;20450;-77
2021/06/07 11:01:47;;;;;;;21.67;17.63;;;;;;;16.77;100.00;155670.97;5044924;28;20450;-77
2021/06/07 11:04:33;;;;;;;20.87;16.37;;;;;;;16.79;100.00;155674.88;5052136;28;20451;-77
2021/06/07 11:07:11;;;;;;;23.33;17.17;;;;;;;16.88;100.00;155698.31;5064858;28;20544;-77
2021/06/07 11:10:19;;;;;;;22.83;16.37;;;;;;;16.86;100.00;155694.41;5052671;28;20446;-77
2021/06/07 11:12:55;;;;;;;21.77;16.97;;;;;;;16.90;100.00;155704.81;5053871;28;20906;-77
2021/06/07 11:15:31;;;;;;;22.23;18.90;;;;;;;16.82;100.00;155682.69;5053448;28;20451;-77
2021/06/07 11:18:28;;;;;;;22.50;16.73;;;;;;;16.98;100.00;155725.63;5095232;28;20497;-77
2021/06/07 11:21:26;;;;;;;22.77;17.87;;;;;;;17.04;100.00;155741.25;5052163;28;20436;-77
2021/06/07 11:24:04;;;;;;;21.90;17.30;;;;;;;17.08;100.00;155749.06;5066896;28;20933;-77
2021/06/07 11:26:40;;;;;;;18.23;14.53;;;;;;;17.17;100.00;155772.47;5065201;28;20478;-77
2021/06/07 11:29:15;;;;;;;20.37;17.03;;;;;;;17.12;100.00;155759.47;5042841;28;20463;-77
2021/06/07 11:31:52;;;;;;;20.20;16.67;;;;;;;16.92;100.00;155708.69;5051870;28;20431;-77
2021/06/07 11:34:48;;;;;;;17.30;15.27;;;;;;;17.13;100.00;155763.34;5070499;28;20458;-77
2021/06/07 11:37:34;;;;;;;22.93;17.70;;;;;;;17.01;100.00;155733.44;5055495;28;20498;-77
2021/06/07 11:40:13;;;;;;;17.53;15.40;;;;;;;17.14;100.00;155764.66;5036750;28;20455;-77
2021/06/07 11:42:55;;;;;;;16.87;15.07;;;;;;;17.17;100.00;155772.47;5065023;28;20430;-77
2021/06/07 11:45:40;;;;;;;16.33;14.57;;;;;;;17.20;100.00;155780.28;5064588;28;20455;-77
2021/06/07 11:48:15;;;;;;;22.07;16.17;;;;;;;17.25;100.00;155794.59;5044279;28;20439;-77